Scottville, NC (28672)

12:03 PM EDT on October 23, 2019 (GMT -0400)
Cooper Cove | | Change Station
Active Advisory: Frost Advisory

Elev 2999 ft 36.49 °N, 81.34 °W | Updated 20 seconds ago

Clear
Clear
53.4 °F
Feels Like 53.4 °F
N
1.3
Wind Variable Wind from ESE
Gusts 2.2 mph

Today
High -- | Low -- °F
--% Chance of Precip.
Yesterday
High -- | Low -- °F
Precip. -- in
Pressure 30.16 in
Visibility 10.0 miles
Clouds Clear
Dew Point 31 °F
Humidity 42%
Rainfall 0.01 in
Snow Depth Not available.
7:39 AM 6:39 PM
Waning Crescent, 26% visible
METAR KGEV 231535Z AUTO 32010G16KT 290V350 10SM CLR 09/M03 A3016 RMK AO2 T00931030
Pressure 30.16 in
Visibility 10.0 miles
Clouds Clear
Dew Point 31 °F
Humidity 42%
Rainfall 0.01 in
Snow Depth Not available.
7:39 AM 6:39 PM
Waning Crescent, 26% visible
METAR KGEV 231535Z AUTO 32010G16KT 290V350 10SM CLR 09/M03 A3016 RMK AO2 T00931030

Get Your Daily Forecast Email!

Thanks for signing up!

Be on the lookout for a verification email in your inbox.

You'll start receiving severe weather alerts in your inbox..

×

10-Day Weather Forecast

Almanac

Astronomy

Oct. 23, 2019 Rise Set
Actual Time
Civil Twilight
Nautical Twilight
Astronomical Twilight
Moon
Length of Visible Light
Length of Day
Tomorrow will be .
, % of the Moon is Illuminated

Today's Extremes

State Highs State Lows

Community

WunderPhotos

Category 6

Welcome to Category 6. This is the collective home for Weather Underground's featured writeups by Dr. Jeff Masters (right), Bob Henson (left), Chris Burt, and other regular contributors.

Nearby

Air Quality

  Air Quality AQ Index Pollutant
Not available.

Snow Depth

Station Depth Elevation

Earthquake Activity

City Distance Mag. Time & Date
Minimum magnitude displayed is 2.5.

Coastal Water Temperatures

Place Temperature

Stations

Nearby Weather Stations

Station Location Temp. Windchill Dew Point Humidity Wind Precip. Elev Updated Type
                   

Watches & Warnings

Frost Advisory
Issued: 9:50 AM EDT Oct. 23, 2019 – National Weather Service

... Frost advisory remains in effect from midnight tonight to 9 am
EDT Thursday...

* what... development of frost.

* Where... mountain valleys and low lying areas in portions of the
Piedmont.

* When... tonight until shortly after daybreak on Thursday.

* Temperature... upper 20s to lower 30s in the deeper mountain
valleys to lower to mid 30s in some sheltered areas of the
Piedmont.

* Additional details... development of frost will be the most
prevalent in the mountain valleys which will experience somewhat
colder temperatures for a longer period of time than the more
isolated instances that will occur across the Piedmont.

* Impacts... any sensitive vegetation left outside may be killed
due to frost.

Precautionary/preparedness actions...

A frost advisory means that a sufficient amount of frost is
expected that many sensitive outdoor plants, if left outdoors of
if left uncovered, may be negatively impacted or killed.



Wert